Home > Products > Valid Products > TAF

000
FTUS44 KOUN 242320
TAFPNC
TAF
KPNC 242320Z 2500/2524 16005KT P6SM SCT250
     FM251500 10008KT P6SM SCT250=



000
FTUS44 KOUN 242320
TAFOKC
TAF
KOKC 242320Z 2500/2524 18007KT P6SM SKC=



000
FTUS44 KOUN 242320
TAFLAW
TAF
KLAW 242320Z 2500/2524 17006KT P6SM SKC
     FM251500 20008KT P6SM SKC=



000
FTUS44 KOUN 242320
TAFWWR
TAF
KWWR 242320Z 2500/2524 21005KT P6SM SKC
     FM251600 15010KT P6SM SKC=



000
FTUS44 KOUN 242320
TAFOUN
TAF
KOUN 242320Z 2500/2524 18007KT P6SM SKC=



000
FTUS44 KOUN 242320
TAFSPS
TAF
KSPS 242320Z 2500/2524 20009KT P6SM SKC=



000
FTUS44 KOUN 242320
TAFHBR
TAF
KHBR 242320Z 2500/2524 20010KT P6SM SKC=



000
FTUS44 KOUN 242320
TAFGAG
TAF
KGAG 242320Z 2500/2524 21005KT P6SM SKC
     FM251600 15010KT P6SM SKC=



000
FTUS44 KOUN 241720
TAFHBR
TAF
KHBR 241720Z 2418/2518 20010KT P6SM SKC=



000
FTUS44 KOUN 241720
TAFPNC
TAF
KPNC 241720Z 2418/2518 20007KT P6SM SCT250=



000
FTUS44 KOUN 241720
TAFSPS
TAF
KSPS 241720Z 2418/2518 20010KT P6SM SKC=



000
FTUS44 KOUN 241720
TAFWWR
TAF
KWWR 241720Z 2418/2518 21008KT P6SM SKC=



000
FTUS44 KOUN 241720
TAFGAG
TAF
KGAG 241720Z 2418/2518 20008KT P6SM SKC=



000
FTUS44 KOUN 241720
TAFOUN
TAF
KOUN 241720Z 2418/2518 19010G15KT P6SM SKC
     FM250000 18007KT P6SM SKC=



000
FTUS44 KOUN 241720
TAFOKC
TAF
KOKC 241720Z 2418/2518 19010G15KT P6SM SKC
     FM250000 19007KT P6SM SKC=



000
FTUS44 KOUN 241720
TAFLAW
TAF
KLAW 241720Z 2418/2518 19008KT P6SM SKC=



000
FTUS44 KOUN 241138 CCA
TAFHBR
TAF COR
KHBR 241138Z 2412/2512 16008KT 6SM BR SCT250
      TEMPO 2412/2414 3SM BR
     FM241500 20011KT P6SM SCT250
     FM250000 16006KT P6SM SCT250=



000
FTUS44 KOUN 241137 CCA
TAFWWR
TAF COR
KWWR 241137Z 2412/2512 22003KT 5SM BR SCT250
      TEMPO 2412/2414 3/4SM BR VV004
     FM241500 19008KT P6SM SCT250=



000
FTUS44 KOUN 241136 CCA
TAFGAG
TAF COR
KGAG 241136Z 2412/2512 26003KT 2SM BR SCT250
      TEMPO 2412/2414 1/4SM FG VV005
     FM241500 19008KT P6SM SCT250=



000
FTUS44 KOUN 241120
TAFOKC
TAF
KOKC 241120Z 2412/2512 15007KT P6SM SCT250
     FM241500 19010G15KT P6SM SCT050 SCT250
     FM250000 16007KT P6SM SCT250=



000
FTUS44 KOUN 241120
TAFWWR
TAF
KWWR 241120Z 2412/2512 18003KT 2SM BR SCT250
      TEMPO 2412/2414 3/4SM BR VV004
     FM241500 19008KT P6SM SCT250=



000
FTUS44 KOUN 241120
TAFGAG
TAF
KGAG 241120Z 2412/2512 18003KT 2SM BR SCT250
      TEMPO 2412/2414 1/2SM FG VV002
     FM241500 19008KT P6SM SCT250=



000
FTUS44 KOUN 241120
TAFPNC
TAF
KPNC 241120Z 2412/2512 16007KT P6SM SCT250
      TEMPO 2412/2414 4SM BR
     FM241500 19008KT P6SM SCT250
     FM250000 16006KT P6SM SCT250=



000
FTUS44 KOUN 241120
TAFOUN
TAF
KOUN 241120Z 2412/2512 15007KT P6SM SCT250
     FM241500 19010G15KT P6SM SCT050 SCT250
     FM250000 16007KT P6SM SCT250=



000
FTUS44 KOUN 241120
TAFLAW
TAF
KLAW 241120Z 2412/2512 15007KT 6SM BR SCT250
     FM241500 20011KT P6SM SCT250
     FM250000 15006KT P6SM SCT250=



000
FTUS44 KOUN 241120
TAFSPS
TAF
KSPS 241120Z 2412/2512 15007KT P6SM SCT250
     FM241500 20011KT P6SM SCT250
     FM250000 17007KT P6SM SCT250=



000
FTUS44 KOUN 241120
TAFHBR
TAF
KHBR 241120Z 2412/2512 16008KT 5SM BR SCT250
      TEMPO 2412/2414 1 1/2SM BR
     FM241500 20011KT P6SM SCT250
     FM250000 16006KT P6SM SCT250=



000
FTUS44 KOUN 241105 AAA
TAFGAG
TAF AMD
KGAG 241105Z 2411/2506 18008KT 4SM BR SCT250
      TEMPO 2411/2413 1/4SM FG
     FM241400 19007KT P6SM SCT250=



000
FTUS44 KOUN 240520
TAFSPS
TAF
KSPS 240520Z 2406/2506 15007KT P6SM SCT250
     FM241500 20011KT P6SM SCT250
     FM250000 17007KT P6SM SCT250=



000
FTUS44 KOUN 240520
TAFOKC
TAF
KOKC 240520Z 2406/2506 15007KT P6SM SCT250
     FM241500 19010G15KT P6SM SCT050 SCT250
     FM250000 16007KT P6SM SCT250=



000
FTUS44 KOUN 240520
TAFWWR
TAF
KWWR 240520Z 2406/2506 18008KT P6SM SCT250
      TEMPO 2409/2413 4SM BR=



000
FTUS44 KOUN 240520
TAFPNC
TAF
KPNC 240520Z 2406/2506 16007KT P6SM SCT250
      TEMPO 2410/2414 4SM BR
     FM241500 19008KT P6SM SCT250
     FM250000 16006KT P6SM SCT250=



000
FTUS44 KOUN 240520
TAFOUN
TAF
KOUN 240520Z 2406/2506 15007KT P6SM SCT250
     FM241500 19010G15KT P6SM SCT050 SCT250
     FM250000 16007KT P6SM SCT250=



000
FTUS44 KOUN 240520
TAFLAW
TAF
KLAW 240520Z 2406/2506 15007KT P6SM SCT250
     FM241500 20011KT P6SM SCT250
     FM250000 15006KT P6SM SCT250=



000
FTUS44 KOUN 240520
TAFGAG
TAF
KGAG 240520Z 2406/2506 18008KT P6SM SCT250
      TEMPO 2409/2413 4SM BR=



000
FTUS44 KOUN 240520
TAFHBR
TAF
KHBR 240520Z 2406/2506 16008KT P6SM SCT250
      TEMPO 2410/2414 4SM BR
     FM241500 20012G18KT P6SM SCT250=



000
FTUS44 KOUN 232320
TAFPNC
TAF
KPNC 232320Z 2400/2424 16007KT P6SM SCT050 SCT250=



000
FTUS44 KOUN 232320
TAFGAG
TAF
KGAG 232320Z 2400/2424 18008KT P6SM SKC
      TEMPO 2409/2413 4SM BR=



000
FTUS44 KOUN 232320
TAFOKC
TAF
KOKC 232320Z 2400/2424 15007KT P6SM SCT250
     FM241500 19010G15KT P6SM SCT250=



000
FTUS44 KOUN 232320
TAFWWR
TAF
KWWR 232320Z 2400/2424 18008KT P6SM SKC
      TEMPO 2409/2413 4SM BR=



000
FTUS44 KOUN 232320
TAFOUN
TAF
KOUN 232320Z 2400/2424 15007KT P6SM SCT250
     FM241500 19010G15KT P6SM SCT250=



000
FTUS44 KOUN 232320
TAFLAW
TAF
KLAW 232320Z 2400/2424 15007KT P6SM SCT250
     FM241500 20011KT P6SM SCT250=



000
FTUS44 KOUN 232320
TAFHBR
TAF
KHBR 232320Z 2400/2424 16008KT P6SM SCT250
      TEMPO 2410/2414 4SM BR
     FM241500 20012G18KT P6SM SCT250=



000
FTUS44 KOUN 232320
TAFSPS
TAF
KSPS 232320Z 2400/2424 15007KT P6SM SCT250
     FM241500 20011KT P6SM SCT250=



000
FTUS44 KOUN 231720
TAFOKC
TAF
KOKC 231720Z 2318/2418 19010G15KT P6SM SCT050
     FM240000 15007KT P6SM SCT250
     FM241500 19010G15KT P6SM SCT250=



000
FTUS44 KOUN 231720
TAFSPS
TAF
KSPS 231720Z 2318/2418 20010KT P6SM SCT060
     FM240000 15007KT P6SM SCT250=



000
FTUS44 KOUN 231720
TAFGAG
TAF
KGAG 231720Z 2318/2418 21009KT P6SM FEW010
     FM231900 18008KT P6SM SKC=



000
FTUS44 KOUN 231720
TAFLAW
TAF
KLAW 231720Z 2318/2418 19009KT P6SM SCT060
     FM240000 14007KT P6SM SCT250=



000
FTUS44 KOUN 231720
TAFOUN
TAF
KOUN 231720Z 2318/2418 19010G15KT P6SM SCT050
     FM240000 15007KT P6SM SCT250
     FM241500 19010G15KT P6SM SCT250=



000
FTUS44 KOUN 231720
TAFPNC
TAF
KPNC 231720Z 2318/2418 19009KT P6SM BKN040
     FM240000 15007KT P6SM SCT050 SCT250=



000
FTUS44 KOUN 231720
TAFWWR
TAF
KWWR 231720Z 2318/2418 21008KT P6SM BKN025
     FM231900 18008KT P6SM SKC=



000
FTUS44 KOUN 231720
TAFHBR
TAF
KHBR 231720Z 2318/2418 20011KT P6SM SCT060
     FM240000 16008KT P6SM SCT250=



000
FTUS44 KOUN 231128
TAFPNC
TAF
KPNC 231128Z 2312/2412 16009KT 6SM BR OVC050
      TEMPO 2312/2314 3SM BR BKN025
     FM231700 19009KT P6SM BKN040
     FM240000 13007KT P6SM SCT050 SCT250=



000
FTUS44 KOUN 231128
TAFOUN
TAF
KOUN 231128Z 2312/2412 18011KT P6SM BKN050
      TEMPO 2312/2314 4SM BR OVC025
     FM231800 19011KT P6SM SCT050
     FM240000 15007KT P6SM SCT250=



000
FTUS44 KOUN 231128
TAFLAW
TAF
KLAW 231128Z 2312/2412 16007KT 6SM BR BKN070
      TEMPO 2312/2314 3SM BR BKN025
     FM231800 19009KT P6SM SCT060
     FM240000 14007KT P6SM SCT250=



000
FTUS44 KOUN 231128
TAFOKC
TAF
KOKC 231128Z 2312/2412 18011KT P6SM BKN050
      TEMPO 2312/2314 4SM BR OVC025
     FM231800 19011KT P6SM SCT050
     FM240000 15007KT P6SM SCT250=



000
FTUS44 KOUN 231128
TAFSPS
TAF
KSPS 231128Z 2312/2412 15007KT P6SM BKN070
      TEMPO 2312/2314 3SM BR BKN025
     FM231700 20010KT P6SM SCT060
     FM240000 15007KT P6SM SCT250=



000
FTUS44 KOUN 231128
TAFHBR
TAF
KHBR 231128Z 2312/2412 18008KT 5SM BR BKN040
      TEMPO 2312/2314 2SM BR BKN012
     FM231800 20011KT P6SM SCT060
     FM240000 16008KT P6SM SCT250=



000
FTUS44 KOUN 231128
TAFGAG
TAF
KGAG 231128Z 2312/2412 18012KT 5SM BR SCT012
      TEMPO 2312/2314 2SM BR OVC012
     FM231600 21009KT P6SM BKN025
     FM231900 18008KT P6SM BKN040
     FM240000 18007KT P6SM SCT250=



000
FTUS44 KOUN 231128
TAFWWR
TAF
KWWR 231128Z 2312/2412 18012KT 5SM BR SCT012
      TEMPO 2312/2314 2SM BR OVC012
     FM231600 21008KT P6SM BKN025
     FM231900 18009KT P6SM BKN040
     FM240000 18007KT P6SM SCT250=



000
FTUS44 KOUN 230522
TAFLAW
TAF
KLAW 230522Z 2306/2406 16007KT P6SM BKN070
     FM231800 19007KT P6SM SCT060=



000
FTUS44 KOUN 230522
TAFWWR
TAF
KWWR 230522Z 2306/2406 18012KT P6SM SCT008 OVC012
      TEMPO 2309/2313 5SM BR OVC008
     FM231500 20007KT P6SM BKN025
     FM231900 19009KT P6SM BKN040=



000
FTUS44 KOUN 230522
TAFPNC
TAF
KPNC 230522Z 2306/2406 16005KT P6SM BKN040
      TEMPO 2306/2310 4SM -RA BR OVC020
     FM231000 16007KT 5SM BR OVC025
     FM231600 16009KT P6SM BKN040=



000
FTUS44 KOUN 230522
TAFSPS
TAF
KSPS 230522Z 2306/2406 15007KT P6SM BKN070
     FM231700 19009KT P6SM SCT060=



000
FTUS44 KOUN 230522
TAFOUN
TAF
KOUN 230522Z 2306/2406 16006KT P6SM OVC060
      TEMPO 2306/2310 4SM -SHRA BR OVC040
     FM231000 17009KT P6SM BKN050
      TEMPO 2310/2314 4SM -RA BR OVC025=



000
FTUS44 KOUN 230522
TAFGAG
TAF
KGAG 230522Z 2306/2406 18012KT P6SM SCT008 OVC012
      TEMPO 2309/2313 5SM BR OVC008
     FM231500 20007KT P6SM BKN025
     FM231800 19010KT P6SM BKN040=



000
FTUS44 KOUN 230522
TAFHBR
TAF
KHBR 230522Z 2306/2406 18008KT 5SM BR OVC060
      TEMPO 2306/2310 2SM BR BKN025
     FM231000 18008KT 4SM BR OVC040
      TEMPO 2310/2314 2SM BR BKN020
     FM231700 19011KT P6SM SCT060=



000
FTUS44 KOUN 230522
TAFOKC
TAF
KOKC 230522Z 2306/2406 16007KT P6SM OVC060
      TEMPO 2306/2310 4SM -SHRA BR OVC040
     FM231000 17010KT P6SM BKN050
      TEMPO 2310/2314 4SM -RA BR OVC025=



000
FTUS44 KOUN 230208 AAA
TAFWWR
TAF AMD
KWWR 230208Z 2302/2324 17010KT P6SM BKN008
      TEMPO 2309/2313 5SM BR
     FM231500 20007KT P6SM BKN025
     FM231900 19008KT P6SM BKN040=



000
FTUS44 KOUN 230208 AAA
TAFWWR
TAF AMD
KWWR 230208Z 2302/2324 17010KT P6SM BKN008
      TEMPO 2309/2313 5SM BR
     FM231500 20007KT P6SM BKN025
     FM231900 19008KT P6SM BKN040=



000
FTUS44 KOUN 230207 AAA
TAFGAG
TAF AMD
KGAG 230207Z 2302/2324 18012KT P6SM BKN008 OVC150
      TEMPO 2309/2313 5SM BR
     FM231500 20007KT P6SM BKN025
     FM231900 20007KT P6SM BKN040=



000
FTUS44 KOUN 230207 AAA
TAFGAG
TAF AMD
KGAG 230207Z 2302/2324 18012KT P6SM BKN008 OVC150
      TEMPO 2309/2313 5SM BR
     FM231500 20007KT P6SM BKN025
     FM231900 20007KT P6SM BKN040=



000
FTUS44 KOUN 222320
TAFOKC
TAF
KOKC 222320Z 2300/2324 16009KT P6SM BKN050
      TEMPO 2301/2305 5SM -SHRA OVC040=



000
FTUS44 KOUN 222320
TAFPNC
TAF
KPNC 222320Z 2300/2324 16006KT P6SM BKN040 BKN100
      TEMPO 2301/2305 6SM -SHRA OVC025
     FM230500 16006KT P6SM OVC040
      TEMPO 2305/2309 5SM -DZ BR OVC020=



000
FTUS44 KOUN 222320
TAFWWR
TAF
KWWR 222320Z 2300/2324 18012KT P6SM BKN040 OVC150
     FM230300 17010KT P6SM BKN012
      TEMPO 2309/2313 5SM BR
     FM231500 20007KT P6SM BKN025
     FM231900 19008KT P6SM BKN040=



000
FTUS44 KOUN 222320
TAFOUN
TAF
KOUN 222320Z 2300/2324 15008KT P6SM BKN050
      TEMPO 2301/2305 5SM -SHRA OVC040=



000
FTUS44 KOUN 222320
TAFGAG
TAF
KGAG 222320Z 2300/2324 18012KT P6SM BKN040 OVC150
     FM230300 17011KT P6SM BKN012
      TEMPO 2309/2313 5SM BR
     FM231500 20007KT P6SM BKN025
     FM231900 20007KT P6SM BKN040=



000
FTUS44 KOUN 222320
TAFSPS
TAF
KSPS 222320Z 2300/2324 17007KT P6SM SCT050 OVC100
      TEMPO 2300/2303 VRB15KT 5SM -SHRA OVC040
     FM230300 15007KT P6SM OVC040
     FM231700 19008KT P6SM SCT050=



000
FTUS44 KOUN 222320
TAFLAW
TAF
KLAW 222320Z 2300/2324 15005KT P6SM SCT050 OVC100
      TEMPO 2300/2304 VRB15KT 4SM -SHRA OVC040
     FM230400 16009KT P6SM OVC050
      TEMPO 2304/2307 5SM -RA BR OVC040
     FM231900 19007KT P6SM SCT060=



000
FTUS44 KOUN 222320
TAFHBR
TAF
KHBR 222320Z 2300/2324 18008KT P6SM OVC060
      TEMPO 2300/2303 VRB15KT 3SM -SHRA OVC040
     FM231700 20011KT P6SM SCT060=



000
FTUS44 KOUN 221735
TAFGAG
TAF
KGAG 221735Z 2218/2318 19010G15KT P6SM BKN040 OVC100
      TEMPO 2218/2222 5SM -SHRA SCT008 OVC025
     FM230200 17011KT P6SM BKN012=



000
FTUS44 KOUN 221735
TAFOKC
TAF
KOKC 221735Z 2218/2318 17010G16KT P6SM BKN025
     FM222300 15009KT 6SM -SHRA BKN035 OVC100
     FM231500 16011KT P6SM OVC040=



000
FTUS44 KOUN 221735
TAFOUN
TAF
KOUN 221735Z 2218/2318 18010G15KT P6SM BKN025
     FM222200 15008KT 6SM -SHRA BKN035 OVC100
     FM231500 16011KT P6SM OVC040=



000
FTUS44 KOUN 221735
TAFLAW
TAF
KLAW 221735Z 2218/2318 17011KT P6SM SCT030 OVC130
     FM222200 15005KT P6SM SCT040 OVC100
      TEMPO 2223/2303 6SM -SHRA OVC025
     FM230400 16009KT P6SM BKN025=



000
FTUS44 KOUN 221735
TAFHBR
TAF
KHBR 221735Z 2218/2318 18014G20KT P6SM SCT030 OVC120
      TEMPO 2222/2302 5SM -SHRA OVC025
     FM230200 17011KT P6SM BKN030=



000
FTUS44 KOUN 221735
TAFWWR
TAF
KWWR 221735Z 2218/2318 19016G22KT P6SM BKN040 OVC100
      TEMPO 2219/2223 5SM -SHRA SCT008 OVC025
     FM230200 17010KT P6SM BKN012=



000
FTUS44 KOUN 221735
TAFSPS
TAF
KSPS 221735Z 2218/2318 18011KT P6SM SCT030 BKN140
      TEMPO 2223/2303 6SM -SHRA OVC025
     FM230300 16009KT P6SM BKN020=



000
FTUS44 KOUN 221735
TAFPNC
TAF
KPNC 221735Z 2218/2318 16010KT P6SM SCT030
     FM222100 15008KT P6SM BKN040 BKN100
      TEMPO 2223/2303 6SM -SHRA OVC025
     FM230300 15003KT P6SM OVC025 PROB30 2303/2309 4SM -RA OVC025=



000
FTUS44 KOUN 221735
TAFLAW
TAF
KLAW 221735Z 2218/2318 17011KT P6SM SCT030 OVC130
     FM222200 15005KT P6SM SCT040 OVC100
      TEMPO 2223/2303 6SM -SHRA OVC025
     FM230400 16009KT P6SM BKN025=



000
FTUS44 KOUN 221735
TAFHBR
TAF
KHBR 221735Z 2218/2318 18014G20KT P6SM SCT030 OVC120
      TEMPO 2222/2302 5SM -SHRA OVC025
     FM230200 17011KT P6SM BKN030=



000
FTUS44 KOUN 221735
TAFGAG
TAF
KGAG 221735Z 2218/2318 19010G15KT P6SM BKN040 OVC100
      TEMPO 2218/2222 5SM -SHRA SCT008 OVC025
     FM230200 17011KT P6SM BKN012=



000
FTUS44 KOUN 221735
TAFOUN
TAF
KOUN 221735Z 2218/2318 18010G15KT P6SM BKN025
     FM222200 15008KT 6SM -SHRA BKN035 OVC100
     FM231500 16011KT P6SM OVC040=



000
FTUS44 KOUN 221735
TAFWWR
TAF
KWWR 221735Z 2218/2318 19016G22KT P6SM BKN040 OVC100
      TEMPO 2219/2223 5SM -SHRA SCT008 OVC025
     FM230200 17010KT P6SM BKN012=



000
FTUS44 KOUN 221735
TAFOKC
TAF
KOKC 221735Z 2218/2318 17010G16KT P6SM BKN025
     FM222300 15009KT 6SM -SHRA BKN035 OVC100
     FM231500 16011KT P6SM OVC040=



000
FTUS44 KOUN 221735
TAFPNC
TAF
KPNC 221735Z 2218/2318 16010KT P6SM SCT030
     FM222100 15008KT P6SM BKN040 BKN100
      TEMPO 2223/2303 6SM -SHRA OVC025
     FM230300 15003KT P6SM OVC025 PROB30 2303/2309 4SM -RA OVC025=



000
FTUS44 KOUN 221735
TAFSPS
TAF
KSPS 221735Z 2218/2318 18011KT P6SM SCT030 BKN140
      TEMPO 2223/2303 6SM -SHRA OVC025
     FM230300 16009KT P6SM BKN020=



000
FTUS44 KOUN 221128
TAFOKC
TAF
KOKC 221128Z 2212/2312 16005KT P6SM SKC
      TEMPO 2212/2214 4SM BR
     FM221600 17012G19KT P6SM SCT040 SCT100
     FM222200 15009KT P6SM BKN040 OVC150 PROB30 2222/2304 5SM -SHRA
      OVC040=



000
FTUS44 KOUN 221128
TAFOUN
TAF
KOUN 221128Z 2212/2312 16005KT P6SM SKC
     FM221600 18012G20KT P6SM SCT040 SCT100
     FM222200 15008KT P6SM BKN040 OVC150 PROB30 2222/2304 5SM -SHRA
      OVC040=



000
FTUS44 KOUN 221128
TAFWWR
TAF
KWWR 221128Z 2212/2312 18012KT P6SM SCT070
     FM221500 19016G22KT P6SM BKN080 BKN150
      TEMPO 2218/2222 4SM -TSRA OVC040CB
     FM230200 17010KT P6SM BKN050=



000
FTUS44 KOUN 221128
TAFHBR
TAF
KHBR 221128Z 2212/2312 18010KT P6SM SCT100
     FM221600 18014G20KT P6SM SCT040 BKN120 PROB30 2221/2302 5SM
      -SHRA OVC040
     FM230200 17011KT P6SM BKN030=



000
FTUS44 KOUN 221128
TAFSPS
TAF
KSPS 221128Z 2212/2312 16007KT P6SM SCT100
     FM221600 18011KT P6SM FEW040 BKN120 PROB30 2221/2303 5SM -SHRA
      OVC040
     FM230300 16009KT P6SM BKN020=



000
FTUS44 KOUN 221128
TAFGAG
TAF
KGAG 221128Z 2212/2312 17012KT P6SM SCT070
     FM221500 19016G22KT P6SM BKN080 OVC200
      TEMPO 2218/2222 4SM -TSRA OVC040CB
     FM230200 17011KT P6SM BKN040=



000
FTUS44 KOUN 221128
TAFPNC
TAF
KPNC 221128Z 2212/2312 16010KT P6SM SCT040
     FM222100 15008KT P6SM BKN040 BKN100
      TEMPO 2223/2303 P6SM -SHRA OVC050
     FM230300 15003KT P6SM OVC025 PROB30 2303/2309 4SM -RA OVC025=



000
FTUS44 KOUN 221128
TAFLAW
TAF
KLAW 221128Z 2212/2312 15004KT P6SM SCT100
     FM221600 17011KT P6SM SCT040 BKN120
     FM222200 15005KT P6SM SCT040 OVC100 PROB30 2222/2303 5SM -SHRA
      OVC040
     FM230400 16009KT P6SM BKN025=



000
FTUS44 KOUN 220520
TAFGAG
TAF
KGAG 220520Z 2206/2306 17012KT P6SM SCT070
     FM221500 19016G22KT P6SM BKN080 OVC200 PROB30 2220/2302 4SM
      -TSRA OVC040CB
     FM230200 17011KT P6SM BKN050=



000
FTUS44 KOUN 220520
TAFPNC
TAF
KPNC 220520Z 2206/2306 14006KT P6SM SCT040
     FM220800 12005KT 5SM BR SCT007
     FM221500 16011KT P6SM SCT040
     FM222100 15008KT P6SM BKN040=



000
FTUS44 KOUN 220520
TAFSPS
TAF
KSPS 220520Z 2206/2306 16007KT P6SM SKC
     FM221600 18011KT P6SM FEW040 BKN120 PROB30 2303/2306 5SM -SHRA
      OVC040=



000
FTUS44 KOUN 220520
TAFLAW
TAF
KLAW 220520Z 2206/2306 15004KT P6SM SKC
     FM221600 17011KT P6SM SCT040 BKN120
     FM222300 15005KT P6SM SCT040 OVC100 PROB30 2302/2306 5SM -SHRA
      OVC040=



000
FTUS44 KOUN 220520
TAFOKC
TAF
KOKC 220520Z 2206/2306 16010KT P6SM SKC
     FM222200 15009KT P6SM BKN050 OVC150 PROB30 2300/2306 5SM -SHRA
      OVC040=



000
FTUS44 KOUN 220520
TAFWWR
TAF
KWWR 220520Z 2206/2306 18012KT P6SM SCT070
     FM221500 19016G22KT P6SM BKN080 OVC200 PROB30 2220/2302 4SM
      -TSRA OVC040CB
     FM230200 17010KT P6SM BKN050=



000
FTUS44 KOUN 220520
TAFOUN
TAF
KOUN 220520Z 2206/2306 16008KT P6SM SKC
     FM222200 15008KT P6SM BKN050 OVC150 PROB30 2300/2306 5SM -SHRA
      OVC040=



000
FTUS44 KOUN 220520
TAFHBR
TAF
KHBR 220520Z 2206/2306 17012KT P6SM SKC
     FM221600 19013G20KT P6SM BKN120
     FM222300 18010KT P6SM BKN050 OVC100 PROB30 2301/2306 5SM -SHRA
      OVC040=



000
FTUS44 KOUN 220520
TAFPNC
TAF
KPNC 220520Z 2206/2306 14006KT P6SM SCT040
     FM220800 12005KT 5SM BR SCT007
     FM221500 16011KT P6SM SCT040
     FM222100 15008KT P6SM BKN040=



000
FTUS44 KOUN 220520
TAFSPS
TAF
KSPS 220520Z 2206/2306 16007KT P6SM SKC
     FM221600 18011KT P6SM FEW040 BKN120 PROB30 2303/2306 5SM -SHRA
      OVC040=



000
FTUS44 KOUN 220520
TAFGAG
TAF
KGAG 220520Z 2206/2306 17012KT P6SM SCT070
     FM221500 19016G22KT P6SM BKN080 OVC200 PROB30 2220/2302 4SM
      -TSRA OVC040CB
     FM230200 17011KT P6SM BKN050=



000
FTUS44 KOUN 220520
TAFLAW
TAF
KLAW 220520Z 2206/2306 15004KT P6SM SKC
     FM221600 17011KT P6SM SCT040 BKN120
     FM222300 15005KT P6SM SCT040 OVC100 PROB30 2302/2306 5SM -SHRA
      OVC040=



000
FTUS44 KOUN 220520
TAFOUN
TAF
KOUN 220520Z 2206/2306 16008KT P6SM SKC
     FM222200 15008KT P6SM BKN050 OVC150 PROB30 2300/2306 5SM -SHRA
      OVC040=



000
FTUS44 KOUN 220520
TAFWWR
TAF
KWWR 220520Z 2206/2306 18012KT P6SM SCT070
     FM221500 19016G22KT P6SM BKN080 OVC200 PROB30 2220/2302 4SM
      -TSRA OVC040CB
     FM230200 17010KT P6SM BKN050=



000
FTUS44 KOUN 220520
TAFHBR
TAF
KHBR 220520Z 2206/2306 17012KT P6SM SKC
     FM221600 19013G20KT P6SM BKN120
     FM222300 18010KT P6SM BKN050 OVC100 PROB30 2301/2306 5SM -SHRA
      OVC040=



000
FTUS44 KOUN 220520
TAFOKC
TAF
KOKC 220520Z 2206/2306 16010KT P6SM SKC
     FM222200 15009KT P6SM BKN050 OVC150 PROB30 2300/2306 5SM -SHRA
      OVC040=



000
FTUS44 KOUN 220002 RRA
TAFGAG
TAF
KGAG 220002Z 2200/2224 17012KT P6SM SCT070
     FM221700 19016G22KT P6SM BKN080 OVC200=



000
FTUS44 KOUN 220002 RRA
TAFLAW
TAF
KLAW 220002Z 2200/2224 15004KT P6SM SKC
     FM221600 16012KT P6SM BKN120=



000
FTUS44 KOUN 220002 RRA
TAFSPS
TAF
KSPS 220002Z 2200/2224 15007KT P6SM SKC
     FM221700 17012KT P6SM BKN120=



000
FTUS44 KOUN 220002 RRA
TAFOKC
TAF
KOKC 220002Z 2200/2224 16008KT P6SM SKC=



000
FTUS44 KOUN 220002 RRA
TAFPNC
TAF
KPNC 220002Z 2200/2224 14006KT P6SM SCT040
     FM220800 12005KT 5SM BR SCT007
     FM221400 16011KT P6SM SCT040=



000
FTUS44 KOUN 220002 RRA
TAFHBR
TAF
KHBR 220002Z 2200/2224 17010KT P6SM SKC
     FM220300 18014G19KT P6SM BKN120=



000
FTUS44 KOUN 220002 RRA
TAFWWR
TAF
KWWR 220002Z 2200/2224 17012KT P6SM FEW070
     FM220600 19016G23KT P6SM BKN080 OVC200=



000
FTUS44 KOUN 220002 RRA
TAFOUN
TAF
KOUN 220002Z 2200/2224 16007KT P6SM SKC=



    US Dept of Commerce
    National Oceanic and Atmospheric Administration
    National Weather Service
    1325 East West Highway
    Silver Spring, MD 20910
    Page Author: NWS Internet Services Team
Disclaimer
Information Quality
Credits
Glossary
Privacy Policy
Freedom of Information Act (FOIA)
About Us
Career Opportunities